sensor_id;sensor_type;location;lat;lon;timestamp;temperature;humidity
7844;DHT22;3967;48.702;9.326;2022-12-19T00:01:32;-2.60;99.90
7844;DHT22;3967;48.702;9.326;2022-12-19T00:04:03;-2.60;99.90
7844;DHT22;3967;48.702;9.326;2022-12-19T00:06:34;-2.70;99.90
7844;DHT22;3967;48.702;9.326;2022-12-19T00:09:02;-2.80;99.90
7844;DHT22;3967;48.702;9.326;2022-12-19T00:11:29;-2.70;99.90
7844;DHT22;3967;48.702;9.326;2022-12-19T00:13:56;-2.60;99.90
7844;DHT22;3967;48.702;9.326;2022-12-19T00:16:25;-2.60;99.90
7844;DHT22;3967;48.702;9.326;2022-12-19T00:18:54;-2.60;99.90
7844;DHT22;3967;48.702;9.326;2022-12-19T00:21:26;-2.60;99.90
7844;DHT22;3967;48.702;9.326;2022-12-19T00:23:53;-2.50;99.90
7844;DHT22;3967;48.702;9.326;2022-12-19T00:26:27;-2.50;99.90
7844;DHT22;3967;48.702;9.326;2022-12-19T00:28:59;-2.40;99.90
7844;DHT22;3967;48.702;9.326;2022-12-19T00:31:28;-2.60;99.90
7844;DHT22;3967;48.702;9.326;2022-12-19T00:33:56;-2.70;99.90
7844;DHT22;3967;48.702;9.326;2022-12-19T00:36:25;-2.60;99.90
7844;DHT22;3967;48.702;9.326;2022-12-19T00:38:54;-2.40;99.90
7844;DHT22;3967;48.702;9.326;2022-12-19T00:41:24;-2.50;99.90
7844;DHT22;3967;48.702;9.326;2022-12-19T00:43:59;-2.40;99.90
7844;DHT22;3967;48.702;9.326;2022-12-19T00:46:27;-2.40;99.90
7844;DHT22;3967;48.702;9.326;2022-12-19T00:48:54;-2.40;99.90
7844;DHT22;3967;48.702;9.326;2022-12-19T00:51:23;-2.40;99.90
7844;DHT22;3967;48.702;9.326;2022-12-19T00:53:53;-2.60;99.90
7844;DHT22;3967;48.702;9.326;2022-12-19T00:56:23;-2.60;99.90
7844;DHT22;3967;48.702;9.326;2022-12-19T00:58:50;-2.60;99.90
7844;DHT22;3967;48.702;9.326;2022-12-19T01:01:19;-2.60;99.90
7844;DHT22;3967;48.702;9.326;2022-12-19T01:03:46;-2.60;99.90
7844;DHT22;3967;48.702;9.326;2022-12-19T01:06:33;-2.60;99.90
7844;DHT22;3967;48.702;9.326;2022-12-19T01:09:00;-2.50;99.90
7844;DHT22;3967;48.702;9.326;2022-12-19T01:11:27;-2.40;99.90
7844;DHT22;3967;48.702;9.326;2022-12-19T01:14:13;-2.50;99.90
7844;DHT22;3967;48.702;9.326;2022-12-19T01:16:48;-2.50;99.90
7844;DHT22;3967;48.702;9.326;2022-12-19T01:19:15;-2.50;99.90
7844;DHT22;3967;48.702;9.326;2022-12-19T01:21:42;-2.60;99.90
7844;DHT22;3967;48.702;9.326;2022-12-19T01:24:09;-2.50;99.90
7844;DHT22;3967;48.702;9.326;2022-12-19T01:26:36;-2.50;99.90
7844;DHT22;3967;48.702;9.326;2022-12-19T01:29:04;-2.40;99.90
7844;DHT22;3967;48.702;9.326;2022-12-19T01:31:31;-2.30;99.90
7844;DHT22;3967;48.702;9.326;2022-12-19T01:33:59;-2.30;99.90
7844;DHT22;3967;48.702;9.326;2022-12-19T01:36:27;-2.30;99.90
7844;DHT22;3967;48.702;9.326;2022-12-19T01:38:57;-2.40;99.90
7844;DHT22;3967;48.702;9.326;2022-12-19T01:41:24;-2.50;99.90
7844;DHT22;3967;48.702;9.326;2022-12-19T01:43:58;-2.40;99.90
7844;DHT22;3967;48.702;9.326;2022-12-19T01:46:37;-2.50;99.90
7844;DHT22;3967;48.702;9.326;2022-12-19T01:49:11;-2.50;99.90
7844;DHT22;3967;48.702;9.326;2022-12-19T01:51:43;-2.40;99.90
7844;DHT22;3967;48.702;9.326;2022-12-19T01:56:46;-2.30;99.90
7844;DHT22;3967;48.702;9.326;2022-12-19T01:59:19;-2.30;99.90
7844;DHT22;3967;48.702;9.326;2022-12-19T02:01:51;-2.50;99.90
7844;DHT22;3967;48.702;9.326;2022-12-19T02:04:21;-2.60;99.90
7844;DHT22;3967;48.702;9.326;2022-12-19T02:06:49;-2.60;99.90
7844;DHT22;3967;48.702;9.326;2022-12-19T02:09:17;-2.50;99.90
7844;DHT22;3967;48.702;9.326;2022-12-19T02:11:44;-2.50;99.90
7844;DHT22;3967;48.702;9.326;2022-12-19T02:14:14;-2.40;99.90
7844;DHT22;3967;48.702;9.326;2022-12-19T02:16:50;-2.40;99.90
7844;DHT22;3967;48.702;9.326;2022-12-19T02:20:01;-2.40;99.90
7844;DHT22;3967;48.702;9.326;2022-12-19T02:26:07;-2.20;99.90
7844;DHT22;3967;48.702;9.326;2022-12-19T02:31:45;-2.10;99.90
7844;DHT22;3967;48.702;9.326;2022-12-19T02:37:30;-2.10;99.90
7844;DHT22;3967;48.702;9.326;2022-12-19T02:40:06;-2.00;99.90
7844;DHT22;3967;48.702;9.326;2022-12-19T02:42:38;-1.90;99.90
7844;DHT22;3967;48.702;9.326;2022-12-19T02:45:07;-1.70;99.90
7844;DHT22;3967;48.702;9.326;2022-12-19T02:47:36;-1.70;99.90
7844;DHT22;3967;48.702;9.326;2022-12-19T02:50:03;-1.70;99.90
7844;DHT22;3967;48.702;9.326;2022-12-19T02:55:10;-1.70;99.90
7844;DHT22;3967;48.702;9.326;2022-12-19T02:58:08;-1.70;99.90
7844;DHT22;3967;48.702;9.326;2022-12-19T03:00:49;-1.80;99.90
7844;DHT22;3967;48.702;9.326;2022-12-19T03:03:32;-1.80;99.90
7844;DHT22;3967;48.702;9.326;2022-12-19T03:09:06;-1.80;99.90
7844;DHT22;3967;48.702;9.326;2022-12-19T03:11:38;-1.50;99.90
7844;DHT22;3967;48.702;9.326;2022-12-19T03:14:10;-1.50;99.90
7844;DHT22;3967;48.702;9.326;2022-12-19T03:16:38;-1.50;99.90
7844;DHT22;3967;48.702;9.326;2022-12-19T03:19:08;-1.50;99.90
7844;DHT22;3967;48.702;9.326;2022-12-19T03:21:53;-1.40;99.90
7844;DHT22;3967;48.702;9.326;2022-12-19T03:24:20;-1.50;99.90
7844;DHT22;3967;48.702;9.326;2022-12-19T03:27:01;-1.40;99.90
7844;DHT22;3967;48.702;9.326;2022-12-19T03:29:32;-1.50;99.90
7844;DHT22;3967;48.702;9.326;2022-12-19T03:32:02;-1.40;99.90
7844;DHT22;3967;48.702;9.326;2022-12-19T03:37:12;-1.20;99.90
7844;DHT22;3967;48.702;9.326;2022-12-19T03:39:40;-1.30;99.90
7844;DHT22;3967;48.702;9.326;2022-12-19T03:42:09;-1.30;99.90
7844;DHT22;3967;48.702;9.326;2022-12-19T03:44:56;-1.30;99.90
7844;DHT22;3967;48.702;9.326;2022-12-19T03:47:31;-1.40;99.90
7844;DHT22;3967;48.702;9.326;2022-12-19T03:49:59;-1.30;99.90
7844;DHT22;3967;48.702;9.326;2022-12-19T03:52:31;-1.30;99.90
7844;DHT22;3967;48.702;9.326;2022-12-19T03:58:23;-1.20;99.90
7844;DHT22;3967;48.702;9.326;2022-12-19T04:00:53;-1.20;99.90
7844;DHT22;3967;48.702;9.326;2022-12-19T04:03:21;-1.10;99.90
7844;DHT22;3967;48.702;9.326;2022-12-19T04:05:49;-1.10;99.90
7844;DHT22;3967;48.702;9.326;2022-12-19T04:08:17;-1.10;99.90
7844;DHT22;3967;48.702;9.326;2022-12-19T04:10:50;-1.10;99.90
7844;DHT22;3967;48.702;9.326;2022-12-19T04:13:24;-1.10;99.90
7844;DHT22;3967;48.702;9.326;2022-12-19T04:16:18;-1.10;99.90
7844;DHT22;3967;48.702;9.326;2022-12-19T04:18:51;-1.10;99.90
7844;DHT22;3967;48.702;9.326;2022-12-19T04:21:29;-1.10;99.90
7844;DHT22;3967;48.702;9.326;2022-12-19T04:24:03;-1.10;99.90
7844;DHT22;3967;48.702;9.326;2022-12-19T04:26:33;-1.10;99.90
7844;DHT22;3967;48.702;9.326;2022-12-19T04:29:03;-1.30;99.90
7844;DHT22;3967;48.702;9.326;2022-12-19T04:31:31;-1.20;99.90
7844;DHT22;3967;48.702;9.326;2022-12-19T04:33:58;-1.20;99.90
7844;DHT22;3967;48.702;9.326;2022-12-19T04:36:25;-1.10;99.90
7844;DHT22;3967;48.702;9.326;2022-12-19T04:38:52;-1.00;99.90
7844;DHT22;3967;48.702;9.326;2022-12-19T04:41:19;-0.90;99.90
7844;DHT22;3967;48.702;9.326;2022-12-19T04:43:45;-0.80;99.90
7844;DHT22;3967;48.702;9.326;2022-12-19T04:46:12;-0.90;99.90
7844;DHT22;3967;48.702;9.326;2022-12-19T04:48:39;-0.80;99.90
7844;DHT22;3967;48.702;9.326;2022-12-19T04:51:05;-0.80;99.90
7844;DHT22;3967;48.702;9.326;2022-12-19T04:53:32;-0.80;99.90
7844;DHT22;3967;48.702;9.326;2022-12-19T04:56:03;-0.80;99.90
7844;DHT22;3967;48.702;9.326;2022-12-19T04:58:31;-0.80;99.90
7844;DHT22;3967;48.702;9.326;2022-12-19T05:01:01;-0.70;99.90
7844;DHT22;3967;48.702;9.326;2022-12-19T05:03:29;-0.80;99.90
7844;DHT22;3967;48.702;9.326;2022-12-19T05:06:06;-0.80;99.90
7844;DHT22;3967;48.702;9.326;2022-12-19T05:08:35;-0.70;99.90
7844;DHT22;3967;48.702;9.326;2022-12-19T05:11:03;-0.70;99.90
7844;DHT22;3967;48.702;9.326;2022-12-19T05:13:31;-0.70;99.90
7844;DHT22;3967;48.702;9.326;2022-12-19T05:16:00;-0.70;99.90
7844;DHT22;3967;48.702;9.326;2022-12-19T05:18:27;-0.60;99.90
7844;DHT22;3967;48.702;9.326;2022-12-19T05:20:54;-0.60;99.90
7844;DHT22;3967;48.702;9.326;2022-12-19T05:23:21;-0.70;99.90
7844;DHT22;3967;48.702;9.326;2022-12-19T05:25:48;-0.70;99.90
7844;DHT22;3967;48.702;9.326;2022-12-19T05:28:15;-0.60;99.90
7844;DHT22;3967;48.702;9.326;2022-12-19T05:30:43;-0.70;99.90
7844;DHT22;3967;48.702;9.326;2022-12-19T05:33:17;-0.60;99.90
7844;DHT22;3967;48.702;9.326;2022-12-19T05:35:44;-0.70;99.90
7844;DHT22;3967;48.702;9.326;2022-12-19T05:38:11;-0.70;99.90
7844;DHT22;3967;48.702;9.326;2022-12-19T05:40:37;-0.70;99.90
7844;DHT22;3967;48.702;9.326;2022-12-19T05:43:04;-0.70;99.90
7844;DHT22;3967;48.702;9.326;2022-12-19T05:45:31;-0.60;99.90
7844;DHT22;3967;48.702;9.326;2022-12-19T05:47:57;-0.60;99.90
7844;DHT22;3967;48.702;9.326;2022-12-19T05:50:27;-0.70;99.90
7844;DHT22;3967;48.702;9.326;2022-12-19T05:52:54;-0.60;99.90
7844;DHT22;3967;48.702;9.326;2022-12-19T05:55:21;-0.40;99.90
7844;DHT22;3967;48.702;9.326;2022-12-19T05:57:47;-0.30;99.90
7844;DHT22;3967;48.702;9.326;2022-12-19T06:00:14;-0.20;99.90
7844;DHT22;3967;48.702;9.326;2022-12-19T06:02:41;-0.10;99.90
7844;DHT22;3967;48.702;9.326;2022-12-19T06:05:11;-0.20;99.90
7844;DHT22;3967;48.702;9.326;2022-12-19T06:07:38;-0.20;99.90
7844;DHT22;3967;48.702;9.326;2022-12-19T06:10:05;-0.10;99.90
7844;DHT22;3967;48.702;9.326;2022-12-19T06:12:32;0.10;99.90
7844;DHT22;3967;48.702;9.326;2022-12-19T06:14:58;0.40;99.90
7844;DHT22;3967;48.702;9.326;2022-12-19T06:17:25;0.10;99.90
7844;DHT22;3967;48.702;9.326;2022-12-19T06:19:52;0.10;99.90
7844;DHT22;3967;48.702;9.326;2022-12-19T06:22:18;0.10;99.90
7844;DHT22;3967;48.702;9.326;2022-12-19T06:24:45;0.00;99.90
7844;DHT22;3967;48.702;9.326;2022-12-19T06:27:12;-0.10;99.90
7844;DHT22;3967;48.702;9.326;2022-12-19T06:29:38;-0.10;99.90
7844;DHT22;3967;48.702;9.326;2022-12-19T06:32:05;0.00;99.90
7844;DHT22;3967;48.702;9.326;2022-12-19T06:34:34;0.00;99.90
7844;DHT22;3967;48.702;9.326;2022-12-19T06:37:20;0.10;99.90
7844;DHT22;3967;48.702;9.326;2022-12-19T06:39:49;0.10;99.90
7844;DHT22;3967;48.702;9.326;2022-12-19T06:42:16;0.10;99.90
7844;DHT22;3967;48.702;9.326;2022-12-19T06:44:50;0.10;99.90
7844;DHT22;3967;48.702;9.326;2022-12-19T06:47:17;0.10;99.90
7844;DHT22;3967;48.702;9.326;2022-12-19T06:49:44;0.10;99.90
7844;DHT22;3967;48.702;9.326;2022-12-19T06:52:17;0.10;99.90
7844;DHT22;3967;48.702;9.326;2022-12-19T06:54:43;0.10;99.90
7844;DHT22;3967;48.702;9.326;2022-12-19T06:57:10;0.10;99.90
7844;DHT22;3967;48.702;9.326;2022-12-19T06:59:37;0.10;99.90
7844;DHT22;3967;48.702;9.326;2022-12-19T07:02:27;0.20;99.90
7844;DHT22;3967;48.702;9.326;2022-12-19T07:05:02;0.20;99.90
7844;DHT22;3967;48.702;9.326;2022-12-19T07:07:29;0.20;99.90
7844;DHT22;3967;48.702;9.326;2022-12-19T07:09:56;0.20;99.90
7844;DHT22;3967;48.702;9.326;2022-12-19T07:12:22;0.30;99.90
7844;DHT22;3967;48.702;9.326;2022-12-19T07:14:49;0.30;99.90
7844;DHT22;3967;48.702;9.326;2022-12-19T07:17:20;0.30;99.90
7844;DHT22;3967;48.702;9.326;2022-12-19T07:19:52;0.40;99.90
7844;DHT22;3967;48.702;9.326;2022-12-19T07:22:20;0.50;99.90
7844;DHT22;3967;48.702;9.326;2022-12-19T07:24:47;0.40;99.90
7844;DHT22;3967;48.702;9.326;2022-12-19T07:27:14;0.30;99.90
7844;DHT22;3967;48.702;9.326;2022-12-19T07:29:40;0.40;99.90
7844;DHT22;3967;48.702;9.326;2022-12-19T07:32:07;0.40;99.90
7844;DHT22;3967;48.702;9.326;2022-12-19T07:34:34;0.30;99.90
7844;DHT22;3967;48.702;9.326;2022-12-19T07:37:01;0.40;99.90
7844;DHT22;3967;48.702;9.326;2022-12-19T07:39:27;0.50;99.90
7844;DHT22;3967;48.702;9.326;2022-12-19T07:41:54;0.60;99.90
7844;DHT22;3967;48.702;9.326;2022-12-19T07:44:21;0.60;99.90
7844;DHT22;3967;48.702;9.326;2022-12-19T07:46:47;0.60;99.90
7844;DHT22;3967;48.702;9.326;2022-12-19T07:49:14;0.60;99.90
7844;DHT22;3967;48.702;9.326;2022-12-19T07:51:48;0.60;99.90
7844;DHT22;3967;48.702;9.326;2022-12-19T07:54:15;0.50;99.90
7844;DHT22;3967;48.702;9.326;2022-12-19T07:56:41;0.60;99.90
7844;DHT22;3967;48.702;9.326;2022-12-19T07:59:09;0.70;99.90
7844;DHT22;3967;48.702;9.326;2022-12-19T08:01:35;0.70;99.90
7844;DHT22;3967;48.702;9.326;2022-12-19T08:04:02;0.70;99.90
7844;DHT22;3967;48.702;9.326;2022-12-19T08:06:29;0.60;99.90
7844;DHT22;3967;48.702;9.326;2022-12-19T08:08:56;0.70;99.90
7844;DHT22;3967;48.702;9.326;2022-12-19T08:11:22;0.60;99.90
7844;DHT22;3967;48.702;9.326;2022-12-19T08:13:53;0.60;99.90
7844;DHT22;3967;48.702;9.326;2022-12-19T08:16:20;0.60;99.90
7844;DHT22;3967;48.702;9.326;2022-12-19T08:18:47;0.70;99.90
7844;DHT22;3967;48.702;9.326;2022-12-19T08:21:14;0.70;99.90
7844;DHT22;3967;48.702;9.326;2022-12-19T08:23:40;0.80;99.90
7844;DHT22;3967;48.702;9.326;2022-12-19T08:26:13;0.90;99.90
7844;DHT22;3967;48.702;9.326;2022-12-19T08:28:41;0.80;99.90
7844;DHT22;3967;48.702;9.326;2022-12-19T08:31:14;0.80;99.90
7844;DHT22;3967;48.702;9.326;2022-12-19T08:33:41;1.00;99.90
7844;DHT22;3967;48.702;9.326;2022-12-19T08:36:11;1.00;99.90
7844;DHT22;3967;48.702;9.326;2022-12-19T08:38:38;0.90;99.90
7844;DHT22;3967;48.702;9.326;2022-12-19T08:41:06;1.00;99.90
7844;DHT22;3967;48.702;9.326;2022-12-19T08:43:33;1.00;99.90
7844;DHT22;3967;48.702;9.326;2022-12-19T08:46:00;1.00;99.90
7844;DHT22;3967;48.702;9.326;2022-12-19T08:48:27;1.00;99.90
7844;DHT22;3967;48.702;9.326;2022-12-19T08:50:56;1.00;99.90
7844;DHT22;3967;48.702;9.326;2022-12-19T08:53:25;0.90;99.90
7844;DHT22;3967;48.702;9.326;2022-12-19T08:56:03;0.90;99.90
7844;DHT22;3967;48.702;9.326;2022-12-19T08:58:32;0.90;99.90
7844;DHT22;3967;48.702;9.326;2022-12-19T09:01:01;0.90;99.90
7844;DHT22;3967;48.702;9.326;2022-12-19T09:03:31;0.90;99.90
7844;DHT22;3967;48.702;9.326;2022-12-19T09:06:18;1.00;99.90
7844;DHT22;3967;48.702;9.326;2022-12-19T09:08:45;1.00;99.90
7844;DHT22;3967;48.702;9.326;2022-12-19T09:11:14;1.00;99.90
7844;DHT22;3967;48.702;9.326;2022-12-19T09:13:42;1.10;99.90
7844;DHT22;3967;48.702;9.326;2022-12-19T09:16:14;1.10;99.90
7844;DHT22;3967;48.702;9.326;2022-12-19T09:18:43;1.10;99.90
7844;DHT22;3967;48.702;9.326;2022-12-19T09:21:15;1.10;99.90
7844;DHT22;3967;48.702;9.326;2022-12-19T09:23:46;1.00;99.90
7844;DHT22;3967;48.702;9.326;2022-12-19T09:26:14;1.10;99.90
7844;DHT22;3967;48.702;9.326;2022-12-19T09:28:41;1.10;99.90
7844;DHT22;3967;48.702;9.326;2022-12-19T09:31:14;1.20;99.90
7844;DHT22;3967;48.702;9.326;2022-12-19T09:33:41;1.20;99.90
7844;DHT22;3967;48.702;9.326;2022-12-19T09:36:18;1.10;99.90
7844;DHT22;3967;48.702;9.326;2022-12-19T09:38:46;1.30;99.90
7844;DHT22;3967;48.702;9.326;2022-12-19T09:47:03;1.50;99.90
7844;DHT22;3967;48.702;9.326;2022-12-19T09:49:38;1.70;99.90
7844;DHT22;3967;48.702;9.326;2022-12-19T09:52:39;1.70;99.90
7844;DHT22;3967;48.702;9.326;2022-12-19T09:55:31;1.80;99.90
7844;DHT22;3967;48.702;9.326;2022-12-19T10:00:53;1.80;99.90
7844;DHT22;3967;48.702;9.326;2022-12-19T10:06:19;1.80;99.90
7844;DHT22;3967;48.702;9.326;2022-12-19T10:09:15;1.80;99.90
7844;DHT22;3967;48.702;9.326;2022-12-19T10:18:46;2.00;99.90
7844;DHT22;3967;48.702;9.326;2022-12-19T10:20:56;2.10;99.90
7844;DHT22;3967;48.702;9.326;2022-12-19T10:32:06;2.10;99.90
7844;DHT22;3967;48.702;9.326;2022-12-19T10:34:39;2.20;99.90
7844;DHT22;3967;48.702;9.326;2022-12-19T10:37:23;2.20;99.90
7844;DHT22;3967;48.702;9.326;2022-12-19T10:40:27;2.30;99.90
7844;DHT22;3967;48.702;9.326;2022-12-19T10:46:01;2.20;99.90
7844;DHT22;3967;48.702;9.326;2022-12-19T10:48:33;2.20;99.90
7844;DHT22;3967;48.702;9.326;2022-12-19T10:50:59;2.30;99.90
7844;DHT22;3967;48.702;9.326;2022-12-19T10:53:32;2.40;99.90
7844;DHT22;3967;48.702;9.326;2022-12-19T10:56:01;2.40;99.90
7844;DHT22;3967;48.702;9.326;2022-12-19T10:58:36;2.40;99.90
7844;DHT22;3967;48.702;9.326;2022-12-19T11:09:22;2.40;99.90
7844;DHT22;3967;48.702;9.326;2022-12-19T11:12:00;2.30;99.90
7844;DHT22;3967;48.702;9.326;2022-12-19T11:15:02;2.30;99.90
7844;DHT22;3967;48.702;9.326;2022-12-19T11:18:08;2.40;99.90
7844;DHT22;3967;48.702;9.326;2022-12-19T11:21:01;2.40;99.90
7844;DHT22;3967;48.702;9.326;2022-12-19T11:26:46;2.60;99.90
7844;DHT22;3967;48.702;9.326;2022-12-19T11:29:47;2.70;99.90
7844;DHT22;3967;48.702;9.326;2022-12-19T11:32:38;2.80;99.90
7844;DHT22;3967;48.702;9.326;2022-12-19T11:35:24;2.80;99.90
7844;DHT22;3967;48.702;9.326;2022-12-19T11:38:03;2.90;99.90
7844;DHT22;3967;48.702;9.326;2022-12-19T11:40:44;3.10;99.90
7844;DHT22;3967;48.702;9.326;2022-12-19T11:43:32;3.10;99.90
7844;DHT22;3967;48.702;9.326;2022-12-19T11:49:25;3.20;99.90
7844;DHT22;3967;48.702;9.326;2022-12-19T11:55:09;3.10;99.90
7844;DHT22;3967;48.702;9.326;2022-12-19T11:57:41;3.10;99.90
7844;DHT22;3967;48.702;9.326;2022-12-19T12:00:12;3.20;99.90
7844;DHT22;3967;48.702;9.326;2022-12-19T12:14:23;3.50;99.90
7844;DHT22;3967;48.702;9.326;2022-12-19T12:26:28;3.70;99.90
7844;DHT22;3967;48.702;9.326;2022-12-19T12:44:11;3.60;99.90
7844;DHT22;3967;48.702;9.326;2022-12-19T12:46:52;3.60;99.90
7844;DHT22;3967;48.702;9.326;2022-12-19T12:49:34;3.50;99.90
7844;DHT22;3967;48.702;9.326;2022-12-19T12:52:05;3.60;99.90
7844;DHT22;3967;48.702;9.326;2022-12-19T12:54:37;3.50;99.90
7844;DHT22;3967;48.702;9.326;2022-12-19T12:57:04;3.60;99.90
7844;DHT22;3967;48.702;9.326;2022-12-19T12:59:31;3.50;99.90
7844;DHT22;3967;48.702;9.326;2022-12-19T13:02:06;3.60;99.90
7844;DHT22;3967;48.702;9.326;2022-12-19T13:04:57;3.70;99.90
7844;DHT22;3967;48.702;9.326;2022-12-19T13:10:28;3.70;99.90
7844;DHT22;3967;48.702;9.326;2022-12-19T13:13:13;3.70;99.90
7844;DHT22;3967;48.702;9.326;2022-12-19T13:15:48;3.70;99.90
7844;DHT22;3967;48.702;9.326;2022-12-19T13:18:34;3.70;99.90
7844;DHT22;3967;48.702;9.326;2022-12-19T13:21:06;3.60;99.90
7844;DHT22;3967;48.702;9.326;2022-12-19T13:26:04;3.80;99.90
7844;DHT22;3967;48.702;9.326;2022-12-19T13:28:45;3.90;99.90
7844;DHT22;3967;48.702;9.326;2022-12-19T13:31:13;4.00;99.90
7844;DHT22;3967;48.702;9.326;2022-12-19T13:34:13;4.00;99.90
7844;DHT22;3967;48.702;9.326;2022-12-19T13:36:50;4.10;99.90
7844;DHT22;3967;48.702;9.326;2022-12-19T13:39:46;4.10;99.90
7844;DHT22;3967;48.702;9.326;2022-12-19T13:42:38;4.30;99.90
7844;DHT22;3967;48.702;9.326;2022-12-19T13:45:39;4.30;99.90
7844;DHT22;3967;48.702;9.326;2022-12-19T13:48:14;4.30;99.90
7844;DHT22;3967;48.702;9.326;2022-12-19T13:50:44;4.20;99.90
7844;DHT22;3967;48.702;9.326;2022-12-19T13:53:20;4.20;99.90
7844;DHT22;3967;48.702;9.326;2022-12-19T13:55:48;4.20;99.90
7844;DHT22;3967;48.702;9.326;2022-12-19T13:58:22;4.20;99.90
7844;DHT22;3967;48.702;9.326;2022-12-19T14:00:57;4.20;99.90
7844;DHT22;3967;48.702;9.326;2022-12-19T14:03:37;4.20;99.90
7844;DHT22;3967;48.702;9.326;2022-12-19T14:06:29;4.10;99.90
7844;DHT22;3967;48.702;9.326;2022-12-19T14:09:04;4.20;99.90
7844;DHT22;3967;48.702;9.326;2022-12-19T14:11:54;4.20;99.90
7844;DHT22;3967;48.702;9.326;2022-12-19T14:14:50;4.30;99.90
7844;DHT22;3967;48.702;9.326;2022-12-19T14:17:39;4.10;99.90
7844;DHT22;3967;48.702;9.326;2022-12-19T14:20:24;4.10;99.90
7844;DHT22;3967;48.702;9.326;2022-12-19T14:23:11;4.10;99.90
7844;DHT22;3967;48.702;9.326;2022-12-19T14:25:42;4.10;99.90
7844;DHT22;3967;48.702;9.326;2022-12-19T14:28:39;4.10;99.90
7844;DHT22;3967;48.702;9.326;2022-12-19T14:31:11;3.80;99.90
7844;DHT22;3967;48.702;9.326;2022-12-19T14:33:49;3.90;99.90
7844;DHT22;3967;48.702;9.326;2022-12-19T14:36:39;4.00;99.90
7844;DHT22;3967;48.702;9.326;2022-12-19T14:39:16;3.70;99.90
7844;DHT22;3967;48.702;9.326;2022-12-19T14:41:52;3.80;99.90
7844;DHT22;3967;48.702;9.326;2022-12-19T14:44:52;3.80;99.90
7844;DHT22;3967;48.702;9.326;2022-12-19T14:47:40;3.80;99.90
7844;DHT22;3967;48.702;9.326;2022-12-19T14:50:31;3.80;99.90
7844;DHT22;3967;48.702;9.326;2022-12-19T14:53:21;3.80;99.90
7844;DHT22;3967;48.702;9.326;2022-12-19T14:56:11;3.90;99.90
7844;DHT22;3967;48.702;9.326;2022-12-19T14:58:59;3.70;99.90
7844;DHT22;3967;48.702;9.326;2022-12-19T15:01:29;3.80;99.90
7844;DHT22;3967;48.702;9.326;2022-12-19T15:04:07;3.80;99.90
7844;DHT22;3967;48.702;9.326;2022-12-19T15:07:06;3.90;99.90
7844;DHT22;3967;48.702;9.326;2022-12-19T15:12:59;3.80;99.90
7844;DHT22;3967;48.702;9.326;2022-12-19T15:16:05;3.80;99.90
7844;DHT22;3967;48.702;9.326;2022-12-19T15:18:49;3.80;99.90
7844;DHT22;3967;48.702;9.326;2022-12-19T15:21:16;3.80;99.90
7844;DHT22;3967;48.702;9.326;2022-12-19T15:23:43;3.80;99.90
7844;DHT22;3967;48.702;9.326;2022-12-19T15:26:13;3.70;99.90
7844;DHT22;3967;48.702;9.326;2022-12-19T15:31:39;3.50;99.90
7844;DHT22;3967;48.702;9.326;2022-12-19T15:34:27;3.50;99.90
7844;DHT22;3967;48.702;9.326;2022-12-19T15:37:15;3.60;99.90
7844;DHT22;3967;48.702;9.326;2022-12-19T15:39:43;3.40;99.90
7844;DHT22;3967;48.702;9.326;2022-12-19T15:42:21;3.40;99.90
7844;DHT22;3967;48.702;9.326;2022-12-19T15:44:50;3.40;99.90
7844;DHT22;3967;48.702;9.326;2022-12-19T15:47:21;3.50;99.90
7844;DHT22;3967;48.702;9.326;2022-12-19T15:49:49;3.50;99.90
7844;DHT22;3967;48.702;9.326;2022-12-19T15:52:18;3.50;99.90
7844;DHT22;3967;48.702;9.326;2022-12-19T15:54:45;3.40;99.90
7844;DHT22;3967;48.702;9.326;2022-12-19T16:00:32;3.40;99.90
7844;DHT22;3967;48.702;9.326;2022-12-19T16:03:00;3.40;99.90
7844;DHT22;3967;48.702;9.326;2022-12-19T16:05:47;3.40;99.90
7844;DHT22;3967;48.702;9.326;2022-12-19T16:08:18;3.40;99.90
7844;DHT22;3967;48.702;9.326;2022-12-19T16:13:44;3.50;99.90
7844;DHT22;3967;48.702;9.326;2022-12-19T16:16:14;3.50;99.90
7844;DHT22;3967;48.702;9.326;2022-12-19T16:18:42;3.50;99.90
7844;DHT22;3967;48.702;9.326;2022-12-19T16:21:28;3.50;99.90
7844;DHT22;3967;48.702;9.326;2022-12-19T16:23:59;3.50;99.90
7844;DHT22;3967;48.702;9.326;2022-12-19T16:26:35;3.50;99.90
7844;DHT22;3967;48.702;9.326;2022-12-19T16:29:03;3.40;99.90
7844;DHT22;3967;48.702;9.326;2022-12-19T16:31:30;3.40;99.90
7844;DHT22;3967;48.702;9.326;2022-12-19T16:33:57;3.30;99.90
7844;DHT22;3967;48.702;9.326;2022-12-19T16:36:23;3.40;99.90
7844;DHT22;3967;48.702;9.326;2022-12-19T16:38:50;3.40;99.90
7844;DHT22;3967;48.702;9.326;2022-12-19T16:41:23;3.30;99.90
7844;DHT22;3967;48.702;9.326;2022-12-19T16:43:50;3.30;99.90
7844;DHT22;3967;48.702;9.326;2022-12-19T16:46:20;3.30;99.90
7844;DHT22;3967;48.702;9.326;2022-12-19T16:48:48;3.30;99.90
7844;DHT22;3967;48.702;9.326;2022-12-19T16:51:20;3.30;99.90
7844;DHT22;3967;48.702;9.326;2022-12-19T16:53:48;3.30;99.90
7844;DHT22;3967;48.702;9.326;2022-12-19T16:56:22;3.30;99.90
7844;DHT22;3967;48.702;9.326;2022-12-19T16:58:51;3.20;99.90
7844;DHT22;3967;48.702;9.326;2022-12-19T17:01:18;3.10;99.90
7844;DHT22;3967;48.702;9.326;2022-12-19T17:03:45;3.20;99.90
7844;DHT22;3967;48.702;9.326;2022-12-19T17:06:15;3.10;99.90
7844;DHT22;3967;48.702;9.326;2022-12-19T17:08:42;3.00;99.90
7844;DHT22;3967;48.702;9.326;2022-12-19T17:11:14;2.80;99.90
7844;DHT22;3967;48.702;9.326;2022-12-19T17:13:42;2.70;99.90
7844;DHT22;3967;48.702;9.326;2022-12-19T17:16:11;2.70;99.90
7844;DHT22;3967;48.702;9.326;2022-12-19T17:18:40;2.80;99.90
7844;DHT22;3967;48.702;9.326;2022-12-19T17:21:13;2.70;99.90
7844;DHT22;3967;48.702;9.326;2022-12-19T17:23:41;2.90;99.90
7844;DHT22;3967;48.702;9.326;2022-12-19T17:26:08;2.90;99.90
7844;DHT22;3967;48.702;9.326;2022-12-19T17:28:43;2.90;99.90
7844;DHT22;3967;48.702;9.326;2022-12-19T17:31:23;2.90;99.90
7844;DHT22;3967;48.702;9.326;2022-12-19T17:33:53;2.90;99.90
7844;DHT22;3967;48.702;9.326;2022-12-19T17:36:21;2.90;99.90
7844;DHT22;3967;48.702;9.326;2022-12-19T17:38:58;2.90;99.90
7844;DHT22;3967;48.702;9.326;2022-12-19T17:41:26;2.90;99.90
7844;DHT22;3967;48.702;9.326;2022-12-19T17:43:53;2.90;99.90
7844;DHT22;3967;48.702;9.326;2022-12-19T17:46:21;2.90;99.90
7844;DHT22;3967;48.702;9.326;2022-12-19T17:48:50;2.90;99.90
7844;DHT22;3967;48.702;9.326;2022-12-19T17:51:19;2.90;99.90
7844;DHT22;3967;48.702;9.326;2022-12-19T17:53:47;3.00;99.90
7844;DHT22;3967;48.702;9.326;2022-12-19T17:56:16;3.00;99.90
7844;DHT22;3967;48.702;9.326;2022-12-19T17:58:43;3.00;99.90
7844;DHT22;3967;48.702;9.326;2022-12-19T18:01:18;2.90;99.90
7844;DHT22;3967;48.702;9.326;2022-12-19T18:03:46;2.90;99.90
7844;DHT22;3967;48.702;9.326;2022-12-19T18:06:14;2.90;99.90
7844;DHT22;3967;48.702;9.326;2022-12-19T18:08:41;2.90;99.90
7844;DHT22;3967;48.702;9.326;2022-12-19T18:11:26;3.00;99.90
7844;DHT22;3967;48.702;9.326;2022-12-19T18:13:53;3.20;99.90
7844;DHT22;3967;48.702;9.326;2022-12-19T18:16:25;3.30;99.90
7844;DHT22;3967;48.702;9.326;2022-12-19T18:18:53;3.40;99.90
7844;DHT22;3967;48.702;9.326;2022-12-19T18:21:21;3.40;99.90
7844;DHT22;3967;48.702;9.326;2022-12-19T18:23:51;3.40;99.90
7844;DHT22;3967;48.702;9.326;2022-12-19T18:26:18;3.60;99.90
7844;DHT22;3967;48.702;9.326;2022-12-19T18:28:45;3.70;99.90
7844;DHT22;3967;48.702;9.326;2022-12-19T18:31:23;3.80;99.90
7844;DHT22;3967;48.702;9.326;2022-12-19T18:33:52;3.90;99.90
7844;DHT22;3967;48.702;9.326;2022-12-19T18:36:22;4.00;99.90
7844;DHT22;3967;48.702;9.326;2022-12-19T18:38:50;4.00;99.90
7844;DHT22;3967;48.702;9.326;2022-12-19T18:41:18;4.10;99.90
7844;DHT22;3967;48.702;9.326;2022-12-19T18:43:45;4.10;99.90
7844;DHT22;3967;48.702;9.326;2022-12-19T18:46:14;4.10;99.90
7844;DHT22;3967;48.702;9.326;2022-12-19T18:48:43;3.90;99.90
7844;DHT22;3967;48.702;9.326;2022-12-19T18:51:17;3.90;99.90
7844;DHT22;3967;48.702;9.326;2022-12-19T18:53:46;3.90;99.90